Kezdőlap
METAR-TAF:

METAR-TAF

Repülőterek :

Boulder, Colorado, Amerikai Egyesült Államok

földrajzi szélesség: 40-02-22N, földrajzi hosszúság: 105-13-33W, magasság: 1612 m

Jelenlegi meteorológiai megfigyelések

A jelentés 38 perccel ezelõtt készült, 07:15 UTC
Nyugat-délnyugati szél 6 kt
Hőmérséklet 24°C
Páratartalom 25%
Légköri nyomás 1018 hPa
Látótávolság: 16.1 km
Derült ég

METAR: KBDU 130715Z AUTO 24006KT 10SM CLR 24/03 A3005 RMK AO2

Idő: 01:53 (07:53 UTC)


TAF: hiányzik

Meteorológiai megfigyelések és előrejelzések több, mint 4000 repülőtéren (METAR és TAF jelentéseket).

A térképen piros és sárga pontok jelzik az elérhető meteorológiai állomásokat.

Mozgassa az egeret a pont fölött, hogy megjelenjen az állomás neve.

Azután kattintson az időjárási megfigyelések és előrejelzések megtekintéséhez.

A térkép megváltoztatása: kattintson a fekete keresztel jelölt zöld gombra ráközelítéshez, a vonallal jelölt zöld gombra távolításhoz, vagy a zöld nyilakra a szomszédos térképek eléréséhez.


METAR-TAF: